Time;durP1;ratioP1;P1;durP2;ratioP2;P2;SDS_P1;SDS_P2;PMS_P1;PMS_P2;Temp;Humidity;BMP_temperature;BMP_pressure;BME280_temperature;BME280_humidity;BME280_pressure;Samples;Min_cycle;Max_cycle;Signal;HPM_P1;HPM_P2
2023/05/25 00:02:15;;;;;;;11.90;8.60;;;;;;;13.49;66.79;100046.81;1714665;82;21029;-61
2023/05/25 00:04:42;;;;;;;13.00;8.73;;;;;;;13.47;66.75;100049.53;1711742;82;21227;-61
2023/05/25 00:07:14;;;;;;;13.53;9.83;;;;;;;13.45;66.83;100048.77;1727975;81;21410;-61
2023/05/25 00:09:43;;;;;;;11.95;8.63;;;;;;;13.43;66.93;100045.37;1712335;81;21603;-61
2023/05/25 00:12:14;;;;;;;14.40;9.90;;;;;;;13.39;66.93;100058.28;1732843;81;21096;-61
2023/05/25 00:14:40;;;;;;;9.88;8.80;;;;;;;13.33;67.14;100057.27;1693368;82;21455;-61
2023/05/25 00:17:08;;;;;;;11.60;9.08;;;;;;;13.31;67.27;100053.91;1728650;81;21011;-61
2023/05/25 00:19:35;;;;;;;12.03;9.53;;;;;;;13.29;67.41;100052.66;1703746;83;21001;-61
2023/05/25 00:22:02;;;;;;;11.75;8.98;;;;;;;13.29;67.50;100059.69;1705823;83;20982;-61
2023/05/25 00:24:30;;;;;;;11.83;8.43;;;;;;;13.29;67.68;100055.75;1690772;83;21033;-61
2023/05/25 00:27:01;;;;;;;13.95;8.55;;;;;;;13.24;67.62;100058.58;1729214;81;21176;-61
2023/05/25 00:29:27;;;;;;;11.12;8.53;;;;;;;13.25;67.73;100059.42;1697335;82;21041;-61
2023/05/25 00:31:56;;;;;;;12.43;9.85;;;;;;;13.26;67.83;100051.52;1736961;81;21048;-61
2023/05/25 00:34:22;;;;;;;14.43;10.38;;;;;;;13.19;67.96;100053.59;1735347;81;21029;-61
2023/05/25 00:36:50;;;;;;;11.40;9.83;;;;;;;13.15;68.18;100065.16;1733870;81;21477;-60
2023/05/25 00:39:18;;;;;;;14.50;10.63;;;;;;;13.14;68.30;100066.09;1729609;81;21639;-61
2023/05/25 00:41:47;;;;;;;12.90;10.80;;;;;;;13.11;68.35;100061.02;1740041;81;20974;-61
2023/05/25 00:44:14;;;;;;;14.05;10.10;;;;;;;13.09;68.41;100056.30;1731182;81;20986;-60
2023/05/25 00:46:50;;;;;;;12.35;10.53;;;;;;;13.09;68.26;100061.55;1728184;81;21545;-61
2023/05/25 00:49:19;;;;;;;14.33;10.50;;;;;;;13.08;68.34;100060.30;1737187;81;21790;-61
2023/05/25 00:51:46;;;;;;;12.78;9.88;;;;;;;13.03;68.42;100060.56;1735622;81;21077;-60
2023/05/25 00:54:14;;;;;;;13.35;10.28;;;;;;;12.99;68.44;100064.25;1731343;81;21631;-61
2023/05/25 00:56:48;;;;;;;16.90;10.20;;;;;;;12.89;68.73;100066.52;1729729;81;21044;-61
2023/05/25 00:59:19;;;;;;;13.53;10.60;;;;;;;12.90;68.79;100062.95;1694820;83;21556;-61
2023/05/25 01:01:48;;;;;;;14.65;11.48;;;;;;;12.85;68.90;100064.12;1733147;81;21016;-61
2023/05/25 01:04:16;;;;;;;13.22;11.00;;;;;;;12.76;68.82;100059.73;1723141;81;21005;-64
2023/05/25 01:06:46;;;;;;;13.53;10.65;;;;;;;12.71;69.02;100059.58;1721305;82;20973;-61
2023/05/25 01:11:50;;;;;;;14.90;10.85;;;;;;;12.65;69.25;100065.13;1733492;79;21648;-57
2023/05/25 01:14:20;;;;;;;14.78;10.68;;;;;;;12.58;69.34;100075.08;1700956;82;21483;-57
2023/05/25 01:16:50;;;;;;;11.70;10.28;;;;;;;12.55;69.32;100080.48;1701292;82;21070;-60
2023/05/25 01:19:17;;;;;;;15.35;10.95;;;;;;;12.53;69.44;100071.84;1705426;82;21062;-58
2023/05/25 01:21:48;;;;;;;16.82;11.73;;;;;;;12.43;69.50;100071.90;1704048;82;21129;-57
2023/05/25 01:24:22;;;;;;;13.80;11.00;;;;;;;12.37;69.74;100070.90;1684416;82;21039;-59
2023/05/25 01:26:55;;;;;;;14.28;10.98;;;;;;;12.26;69.42;100072.26;1696537;82;21034;-58
2023/05/25 01:29:25;;;;;;;13.40;11.70;;;;;;;12.12;69.63;100066.84;1702599;82;21032;-58
2023/05/25 01:31:53;;;;;;;16.95;10.43;;;;;;;12.03;69.79;100072.53;1699693;82;21537;-58
2023/05/25 01:34:25;;;;;;;13.72;9.95;;;;;;;11.92;69.85;100063.03;1707136;82;20980;-57
2023/05/25 01:36:52;;;;;;;12.50;10.55;;;;;;;11.83;69.80;100066.90;1689677;82;21080;-58
2023/05/25 01:39:21;;;;;;;15.45;11.03;;;;;;;11.74;70.04;100066.88;1692983;83;20950;-58
2023/05/25 01:41:48;;;;;;;14.43;10.98;;;;;;;11.65;70.02;100072.08;1696959;82;21021;-58
2023/05/25 01:44:15;;;;;;;17.13;10.50;;;;;;;11.53;70.01;100068.69;1703299;82;20924;-59
2023/05/25 01:46:41;;;;;;;15.65;10.63;;;;;;;11.43;70.33;100072.20;1705270;82;21042;-58
2023/05/25 01:49:17;;;;;;;13.90;10.97;;;;;;;11.40;70.35;100072.80;1700324;82;20980;-58
2023/05/25 01:52:00;;;;;;;14.60;11.08;;;;;;;11.33;70.39;100074.83;1706691;82;22231;-59
2023/05/25 01:54:29;;;;;;;15.30;10.72;;;;;;;11.30;70.58;100081.97;1696464;82;21074;-57
2023/05/25 01:57:00;;;;;;;13.98;9.70;;;;;;;11.16;70.94;100058.59;1697848;82;21074;-58
2023/05/25 01:59:29;;;;;;;15.78;10.30;;;;;;;11.23;70.75;100084.02;1710127;82;21013;-60
2023/05/25 02:01:57;;;;;;;12.78;9.63;;;;;;;11.20;70.95;100078.89;1700212;82;21015;-58
2023/05/25 02:04:24;;;;;;;13.38;10.55;;;;;;;11.15;70.96;100079.58;1702642;82;21601;-57
2023/05/25 02:06:51;;;;;;;;;;;;;;;11.14;71.09;100075.25;1704577;82;21045;-58
2023/05/25 02:09:17;;;;;;;13.88;9.70;;;;;;;11.09;71.20;100071.55;1696616;82;20192;-62
2023/05/25 02:11:44;;;;;;;12.90;10.20;;;;;;;11.09;71.29;100068.06;1698773;82;21086;-58
2023/05/25 02:14:12;;;;;;;14.38;9.40;;;;;;;11.01;71.21;100067.55;1697636;83;20952;-58
2023/05/25 02:16:38;;;;;;;;;;;;;;;11.00;71.36;100068.48;1692984;83;21525;-58
2023/05/25 02:19:06;;;;;;;11.68;9.33;;;;;;;10.95;71.55;100077.37;1692523;83;20285;-58
2023/05/25 02:21:35;;;;;;;14.40;10.15;;;;;;;10.92;71.64;100072.28;1691485;83;21024;-57
2023/05/25 02:24:01;;;;;;;17.02;9.43;;;;;;;10.86;71.50;100067.30;1692398;83;21067;-58
2023/05/25 02:26:28;;;;;;;15.72;10.30;;;;;;;10.77;71.47;100075.53;1692765;84;21063;-58
2023/05/25 02:28:55;;;;;;;17.53;10.53;;;;;;;10.70;71.72;100063.67;1692647;83;21074;-58
2023/05/25 02:31:21;;;;;;;15.10;11.50;;;;;;;10.71;72.13;100067.97;1692458;83;21088;-58
2023/05/25 02:33:47;;;;;;;14.28;9.80;;;;;;;10.72;72.14;100067.04;1692690;83;21104;-60
2023/05/25 02:36:14;;;;;;;13.58;9.25;;;;;;;10.71;72.12;100064.05;1690238;83;21026;-60
2023/05/25 02:38:41;;;;;;;15.07;9.83;;;;;;;10.68;72.20;100065.48;1688529;83;20975;-60
2023/05/25 02:41:08;;;;;;;13.90;8.83;;;;;;;10.62;72.21;100063.14;1693744;83;21094;-58
2023/05/25 02:43:34;;;;;;;16.90;10.08;;;;;;;10.61;72.39;100069.25;1691754;83;21139;-60
2023/05/25 02:46:01;;;;;;;13.30;9.15;;;;;;;10.62;72.59;100064.45;1694126;83;21159;-57
2023/05/25 02:48:28;;;;;;;13.83;9.37;;;;;;;10.64;72.56;100058.68;1691789;84;21510;-58
2023/05/25 02:50:54;;;;;;;16.10;10.28;;;;;;;10.62;72.52;100056.16;1692032;83;21046;-61
2023/05/25 02:53:21;;;;;;;17.30;9.73;;;;;;;10.63;72.80;100058.30;1694044;83;21570;-58
2023/05/25 02:55:47;;;;;;;15.03;9.38;;;;;;;10.68;72.88;100056.34;1690644;83;21110;-59
2023/05/25 02:58:20;;;;;;;14.60;8.60;;;;;;;10.71;72.89;100056.22;1693630;83;20976;-60
2023/05/25 03:00:47;;;;;;;14.45;8.38;;;;;;;10.74;72.97;100057.39;1691162;83;21003;-63
2023/05/25 03:03:14;;;;;;;13.30;9.40;;;;;;;10.74;72.99;100065.22;1691572;84;20999;-62
2023/05/25 03:05:40;;;;;;;14.67;8.73;;;;;;;10.74;73.08;100066.53;1693266;83;21058;-58
2023/05/25 03:08:07;;;;;;;18.45;9.90;;;;;;;10.74;73.08;100065.22;1693091;84;21521;-57
2023/05/25 03:10:34;;;;;;;14.80;9.38;;;;;;;10.72;73.22;100067.04;1694811;83;21034;-64
2023/05/25 03:13:01;;;;;;;12.33;8.90;;;;;;;10.72;73.46;100070.95;1658169;85;21098;-59
2023/05/25 03:15:28;;;;;;;16.30;9.10;;;;;;;10.74;73.46;100071.75;1672090;82;21082;-63
2023/05/25 03:17:59;;;;;;;10.53;8.48;;;;;;;10.70;73.39;100064.98;1700906;82;21150;-58
2023/05/25 03:20:25;;;;;;;24.02;9.53;;;;;;;10.69;73.57;100068.48;1704958;82;21020;-59
2023/05/25 03:22:54;;;;;;;15.32;9.15;;;;;;;10.69;73.60;100067.17;1699039;83;21011;-59
2023/05/25 03:28:04;;;;;;;15.00;9.05;;;;;;;10.68;73.92;100058.95;1673824;83;21120;-59
2023/05/25 03:30:31;;;;;;;27.95;10.32;;;;;;;10.74;74.29;100053.47;1700895;83;21087;-57
2023/05/25 03:32:58;;;;;;;15.13;9.05;;;;;;;10.78;74.37;100051.10;1702774;83;21588;-64
2023/05/25 03:35:24;;;;;;;13.43;8.73;;;;;;;10.79;74.21;100052.82;1705840;83;20995;-58
2023/05/25 03:37:51;;;;;;;15.53;8.95;;;;;;;10.82;74.49;100053.99;1701485;83;21056;-60
2023/05/25 03:40:17;;;;;;;12.93;9.27;;;;;;;10.87;74.42;100058.56;1703016;83;21024;-59
2023/05/25 03:42:44;;;;;;;25.47;10.43;;;;;;;10.97;74.72;100057.23;1698830;83;21031;-70
2023/05/25 03:45:14;;;;;;;10.48;8.20;;;;;;;11.09;74.69;100057.61;1700320;83;21001;-59
2023/05/25 03:47:40;;;;;;;12.53;8.05;;;;;;;11.18;74.70;100058.53;1704345;83;21824;-64
2023/05/25 03:50:08;;;;;;;52.33;11.88;;;;;;;11.28;74.81;100060.27;1706631;82;21588;-63
2023/05/25 03:52:35;;;;;;;37.98;11.63;;;;;;;11.39;74.73;100063.25;1707954;82;21635;-70
2023/05/25 03:55:03;;;;;;;34.78;10.03;;;;;;;11.49;74.90;100062.39;1707561;82;21486;-69
2023/05/25 03:57:30;;;;;;;18.85;8.03;;;;;;;11.59;74.72;100068.88;1707974;82;21007;-65
2023/05/25 03:59:56;;;;;;;16.80;8.05;;;;;;;11.69;74.90;100068.85;1704637;82;21878;-59
2023/05/25 04:02:23;;;;;;;33.45;11.15;;;;;;;11.77;74.76;100068.50;1706613;82;20989;-61
2023/05/25 04:04:52;;;;;;;16.05;7.70;;;;;;;11.83;75.03;100076.91;1706597;82;21103;-58
2023/05/25 04:07:19;;;;;;;14.68;7.67;;;;;;;11.89;74.75;100077.57;1699876;82;21470;-64
2023/05/25 04:09:46;;;;;;;17.60;8.00;;;;;;;11.94;74.98;100081.67;1707202;82;21010;-60
2023/05/25 04:12:13;;;;;;;19.05;8.05;;;;;;;12.06;75.18;100068.45;1707858;82;21115;-61
2023/05/25 04:14:41;;;;;;;18.90;7.97;;;;;;;12.17;75.12;100066.63;1676921;83;21015;-65
2023/05/25 04:17:08;;;;;;;15.83;7.17;;;;;;;12.28;75.15;100075.66;1716278;82;21019;-66
2023/05/25 04:19:35;;;;;;;14.27;7.63;;;;;;;12.38;75.17;100077.81;1704791;82;20953;-65
2023/05/25 04:22:04;;;;;;;13.95;7.00;;;;;;;12.46;75.10;100083.53;1686959;83;21350;-59
2023/05/25 04:24:31;;;;;;;18.95;8.20;;;;;;;12.52;75.02;100088.49;1693688;83;21109;-59
2023/05/25 04:26:58;;;;;;;14.83;7.35;;;;;;;12.61;75.00;100080.17;1694970;83;21127;-65
2023/05/25 04:29:24;;;;;;;10.63;6.65;;;;;;;12.75;75.39;100082.94;1691635;83;21003;-58
2023/05/25 04:31:53;;;;;;;10.25;6.75;;;;;;;12.87;75.16;100081.93;1696195;82;21014;-59
2023/05/25 04:34:20;;;;;;;10.78;7.62;;;;;;;12.97;75.20;100080.08;1695751;82;21576;-58
2023/05/25 04:36:47;;;;;;;12.58;7.12;;;;;;;13.12;75.33;100088.91;1693315;82;21162;-58
2023/05/25 04:39:13;;;;;;;10.68;6.17;;;;;;;13.26;75.16;100080.36;1693688;82;21066;-59
2023/05/25 04:41:39;;;;;;;11.43;6.30;;;;;;;13.35;75.11;100076.41;1692226;82;20975;-59
2023/05/25 04:44:07;;;;;;;11.90;6.67;;;;;;;13.48;75.12;100066.95;1695525;82;21083;-58
2023/05/25 04:46:37;;;;;;;12.40;6.30;;;;;;;13.64;75.24;100073.08;1694271;82;21316;-60
2023/05/25 04:49:07;;;;;;;13.58;5.90;;;;;;;13.80;75.30;100066.97;1695315;82;21465;-58
2023/05/25 04:51:36;;;;;;;15.05;6.85;;;;;;;13.98;75.28;100076.47;1697604;82;21003;-59
2023/05/25 04:54:06;;;;;;;15.65;6.87;;;;;;;14.16;74.97;100081.61;1691440;84;21032;-61
2023/05/25 04:56:32;;;;;;;11.03;5.25;;;;;;;14.28;74.86;100070.41;1695318;82;21133;-58
2023/05/25 04:59:06;;;;;;;10.78;5.92;;;;;;;14.38;74.76;100074.20;1702912;82;21640;-59
2023/05/25 05:01:44;;;;;;;11.20;5.65;;;;;;;14.47;74.73;100076.77;1693261;82;21011;-61
2023/05/25 05:04:09;;;;;;;8.40;5.83;;;;;;;14.62;74.80;100073.30;1739454;79;21612;-59
2023/05/25 05:06:35;;;;;;;13.18;5.45;;;;;;;14.74;74.63;100063.37;1753150;79;21145;-61
2023/05/25 05:09:02;;;;;;;8.03;5.10;;;;;;;14.86;74.52;100061.78;1755854;79;21208;-59
2023/05/25 05:11:31;;;;;;;15.18;5.45;;;;;;;14.94;74.54;100060.86;1753888;80;20986;-61
2023/05/25 05:13:59;;;;;;;12.30;6.05;;;;;;;15.11;74.56;100064.27;1756814;79;21577;-61
2023/05/25 05:16:33;;;;;;;12.45;5.30;;;;;;;15.27;74.62;100058.45;1754630;80;21077;-61
2023/05/25 05:18:57;;;;;;;8.63;4.92;;;;;;;15.44;74.52;100063.52;1751190;79;20916;-65
2023/05/25 05:21:23;;;;;;;10.30;5.33;;;;;;;15.61;74.09;100069.52;1757195;79;20970;-61
2023/05/25 05:23:50;;;;;;;10.10;6.25;;;;;;;15.67;73.95;100069.12;1758916;79;22455;-63
2023/05/25 05:26:16;;;;;;;17.80;5.63;;;;;;;15.70;73.68;100066.33;1753176;80;20908;-61
2023/05/25 05:28:44;;;;;;;9.40;4.90;;;;;;;15.80;73.99;100070.56;1753496;79;21059;-62
2023/05/25 05:31:12;;;;;;;24.98;5.50;;;;;;;15.97;73.98;100076.07;1755904;79;21073;-61
2023/05/25 05:33:38;;;;;;;9.65;4.90;;;;;;;16.10;73.83;100073.87;1757455;79;21208;-63
2023/05/25 05:36:05;;;;;;;9.25;5.10;;;;;;;16.27;73.75;100076.72;1756463;79;21396;-62
2023/05/25 05:38:32;;;;;;;8.90;5.05;;;;;;;16.45;73.71;100071.19;1751963;79;21066;-61
2023/05/25 05:40:58;;;;;;;6.87;4.47;;;;;;;16.59;73.21;100071.11;1765192;79;21505;-63
2023/05/25 05:43:25;;;;;;;7.33;4.70;;;;;;;16.69;73.25;100076.59;1765516;79;20971;-61
2023/05/25 05:45:51;;;;;;;78.07;8.13;;;;;;;16.84;73.09;100064.23;1764807;79;21046;-61
2023/05/25 05:48:17;;;;;;;8.90;4.28;;;;;;;17.03;73.28;100067.30;1763082;78;21100;-61
2023/05/25 05:50:43;;;;;;;9.80;4.67;;;;;;;17.18;72.85;100074.14;1759532;79;20942;-64
2023/05/25 05:53:10;;;;;;;9.73;5.27;;;;;;;17.35;72.89;100074.77;1720968;81;21057;-62
2023/05/25 05:55:36;;;;;;;12.80;5.10;;;;;;;17.59;72.68;100078.81;1768329;80;21058;-62
2023/05/25 05:58:02;;;;;;;8.70;4.03;;;;;;;17.74;72.31;100075.55;1757865;80;20966;-62
2023/05/25 06:00:29;;;;;;;12.40;3.90;;;;;;;17.88;71.82;100084.69;1755125;80;20995;-62
2023/05/25 06:02:56;;;;;;;10.20;4.20;;;;;;;17.98;71.74;100088.36;1756314;80;21017;-64
2023/05/25 06:05:22;;;;;;;18.95;5.08;;;;;;;18.12;71.65;100086.04;1754206;79;21037;-63
2023/05/25 06:07:49;;;;;;;9.95;4.15;;;;;;;18.31;71.87;100080.22;1755816;79;20998;-63
2023/05/25 06:10:15;;;;;;;10.38;4.85;;;;;;;18.52;71.43;100083.93;1722485;81;20991;-62
2023/05/25 06:12:41;;;;;;;8.83;3.83;;;;;;;18.72;71.00;100089.53;1760706;79;21328;-62
2023/05/25 06:15:09;;;;;;;12.63;3.87;;;;;;;18.79;70.73;100085.48;1722043;81;21006;-63
2023/05/25 06:17:35;;;;;;;10.08;3.22;;;;;;;18.92;70.55;100082.27;1755943;79;20920;-63
2023/05/25 06:20:05;;;;;;;9.58;3.75;;;;;;;19.15;70.65;100086.27;1754522;79;20911;-64
2023/05/25 06:22:32;;;;;;;8.95;3.40;;;;;;;19.28;69.76;100092.31;1758444;79;20983;-62
2023/05/25 06:25:00;;;;;;;7.20;3.85;;;;;;;19.41;69.51;100092.21;1759177;79;21509;-63
2023/05/25 06:27:27;;;;;;;8.58;3.98;;;;;;;19.53;69.42;100093.05;1757792;78;21030;-64
2023/05/25 06:29:54;;;;;;;7.92;3.95;;;;;;;19.71;69.53;100096.91;1729396;80;21026;-62
2023/05/25 06:32:21;;;;;;;7.40;4.00;;;;;;;19.93;68.87;100103.16;1724954;81;21029;-62
2023/05/25 06:34:47;;;;;;;14.93;4.13;;;;;;;20.07;68.51;100102.39;1765799;79;21006;-63
2023/05/25 06:37:14;;;;;;;7.47;3.62;;;;;;;20.29;68.67;100098.84;1757425;80;21709;-62
2023/05/25 06:39:42;;;;;;;7.15;3.47;;;;;;;20.59;68.30;100109.27;1755259;80;20971;-63
2023/05/25 06:42:08;;;;;;;;;;;;;;;20.82;67.85;100098.54;1759718;80;21062;-64
2023/05/25 06:44:35;;;;;;;284.73;16.62;;;;;;;20.99;67.09;100103.25;1751976;79;20475;-64
2023/05/25 06:47:01;;;;;;;9.13;3.80;;;;;;;21.18;67.40;100103.38;1754762;79;21049;-64
2023/05/25 06:49:29;;;;;;;8.73;3.93;;;;;;;21.63;67.12;100100.40;1718140;81;21026;-62
2023/05/25 06:51:55;;;;;;;6.95;3.55;;;;;;;22.05;66.98;100102.89;1755551;79;21469;-62
2023/05/25 06:54:22;;;;;;;5.33;3.42;;;;;;;22.55;66.67;100110.82;1758809;79;20908;-62
2023/05/25 06:56:48;;;;;;;5.50;2.72;;;;;;;23.31;67.10;100106.53;1757928;79;21065;-62
2023/05/25 06:59:15;;;;;;;10.47;3.43;;;;;;;24.19;65.68;100109.13;1761098;79;20956;-62
2023/05/25 07:01:41;;;;;;;11.90;3.72;;;;;;;24.87;64.90;100107.76;1750490;79;21050;-62
2023/05/25 07:04:07;;;;;;;6.00;3.30;;;;;;;25.55;63.10;100116.42;1754092;80;20974;-62
2023/05/25 07:06:33;;;;;;;9.53;3.52;;;;;;;26.15;63.60;100110.14;1757215;80;21013;-62
2023/05/25 07:09:00;;;;;;;5.73;3.60;;;;;;;27.09;62.98;100115.58;1750819;79;20954;-62
2023/05/25 07:11:26;;;;;;;7.50;3.50;;;;;;;28.00;61.83;100116.98;1758894;78;21584;-62
2023/05/25 07:13:53;;;;;;;6.95;3.90;;;;;;;28.54;59.38;100117.03;1756085;79;21472;-62
2023/05/25 07:16:19;;;;;;;14.20;4.05;;;;;;;28.82;59.03;100117.78;1757781;79;20999;-63
2023/05/25 07:18:46;;;;;;;;;;;;;;;28.86;56.36;100119.11;1730960;81;20982;-62
2023/05/25 07:21:13;;;;;;;9.33;3.58;;;;;;;28.97;55.42;100121.36;1728176;80;20161;-62
2023/05/25 07:23:42;;;;;;;7.37;3.40;;;;;;;29.34;56.75;100111.60;1727604;81;21312;-62
2023/05/25 07:26:08;;;;;;;9.38;3.35;;;;;;;29.79;56.10;100107.06;1723492;81;21508;-62
2023/05/25 07:28:35;;;;;;;6.28;3.45;;;;;;;30.33;54.84;100114.73;1718221;81;21010;-63
2023/05/25 07:31:01;;;;;;;9.80;3.62;;;;;;;30.63;54.36;100114.61;1723403;81;21018;-62
2023/05/25 07:33:29;;;;;;;11.43;3.75;;;;;;;30.84;52.79;100114.63;1757922;79;21006;-63
2023/05/25 07:35:56;;;;;;;18.45;3.95;;;;;;;31.10;51.86;100113.16;1714216;82;21589;-62
2023/05/25 07:38:22;;;;;;;;;;;;;;;31.39;51.50;100121.05;1695818;83;21000;-62
2023/05/25 07:40:49;;;;;;;11.75;3.90;;;;;;;31.60;50.02;100123.36;1756345;79;20164;-63
2023/05/25 07:43:16;;;;;;;220.75;14.78;;;;;;;31.80;50.29;100114.82;1756089;79;21025;-62
2023/05/25 07:45:46;;;;;;;9.45;3.58;;;;;;;32.31;49.90;100117.08;1756189;79;20981;-63
2023/05/25 07:48:12;;;;;;;6.03;3.08;;;;;;;33.09;48.73;100124.67;1760510;79;20948;-62
2023/05/25 07:50:38;;;;;;;5.67;3.15;;;;;;;33.69;47.68;100129.13;1756841;79;21034;-64
2023/05/25 07:53:05;;;;;;;6.72;2.95;;;;;;;33.86;46.42;100135.72;1754923;78;21122;-63
2023/05/25 07:55:33;;;;;;;;;;;;;;;34.12;46.06;100136.70;1758387;79;21603;-63
2023/05/25 07:57:59;;;;;;;6.62;3.40;;;;;;;34.40;44.42;100139.86;1756339;79;21229;-63
2023/05/25 08:00:26;;;;;;;4.87;2.70;;;;;;;34.66;44.09;100135.33;1751210;79;21044;-63
2023/05/25 08:02:52;;;;;;;6.78;3.05;;;;;;;35.00;43.76;100141.30;1755752;79;20942;-64
2023/05/25 08:05:19;;;;;;;7.72;2.47;;;;;;;35.55;43.06;100129.20;1767736;79;20974;-63
2023/05/25 08:07:45;;;;;;;11.80;3.00;;;;;;;36.27;41.70;100130.70;1763442;79;20927;-63
2023/05/25 08:10:12;;;;;;;5.30;3.02;;;;;;;35.98;39.96;100113.31;1765533;79;21029;-62
2023/05/25 08:12:38;;;;;;;5.30;2.92;;;;;;;35.98;39.96;100113.31;1766539;79;21066;-61
2023/05/25 08:15:06;;;;;;;10.23;2.72;;;;;;;36.27;39.74;100130.20;1766249;79;20955;-61
2023/05/25 08:17:32;;;;;;;16.30;3.58;;;;;;;36.51;39.00;100137.05;1767268;79;20965;-61
2023/05/25 08:19:59;;;;;;;11.53;2.92;;;;;;;36.81;37.83;100132.11;1765192;79;21426;-61
2023/05/25 08:22:26;;;;;;;9.88;3.27;;;;;;;37.14;37.70;100143.79;1762806;79;20944;-61
2023/05/25 08:24:55;;;;;;;11.12;2.80;;;;;;;37.49;36.44;100139.71;1722182;82;20998;-61
2023/05/25 08:27:21;;;;;;;4.37;2.47;;;;;;;37.49;35.97;100143.80;1762723;79;20983;-62
2023/05/25 08:29:48;;;;;;;9.85;2.83;;;;;;;37.53;35.41;100150.44;1764091;79;21038;-61
2023/05/25 08:32:14;;;;;;;12.07;3.00;;;;;;;37.48;34.75;100154.41;1761973;80;21592;-61
2023/05/25 08:34:41;;;;;;;7.17;2.87;;;;;;;37.57;34.01;100154.33;1766145;80;21003;-60
2023/05/25 08:37:07;;;;;;;5.45;2.75;;;;;;;37.77;34.04;100145.75;1761416;79;21565;-61
2023/05/25 08:39:34;;;;;;;4.47;2.85;;;;;;;38.02;33.33;100150.91;1771697;79;21582;-61
2023/05/25 08:42:00;;;;;;;7.87;2.65;;;;;;;38.03;32.68;100154.45;1770276;79;21031;-63
2023/05/25 08:44:32;;;;;;;5.05;2.75;;;;;;;38.11;32.22;100156.80;1764364;79;22183;-60
2023/05/25 08:47:04;;;;;;;8.05;2.80;;;;;;;37.70;31.17;100151.03;1767268;79;22373;-61
2023/05/25 08:49:36;;;;;;;9.08;3.00;;;;;;;37.02;31.59;100157.41;1723036;81;21491;-62
2023/05/25 08:52:06;;;;;;;6.47;2.40;;;;;;;37.45;31.57;100157.58;1738189;79;20999;-61
2023/05/25 08:54:38;;;;;;;4.50;2.75;;;;;;;37.59;29.96;100164.45;1769330;79;21613;-61
2023/05/25 08:57:24;;;;;;;10.23;2.65;;;;;;;36.52;29.61;100161.30;1770384;79;20986;-60
2023/05/25 08:59:55;;;;;;;6.97;2.90;;;;;;;35.92;30.38;100168.58;1768982;79;21003;-61
2023/05/25 09:02:27;;;;;;;5.08;2.62;;;;;;;35.45;29.79;100165.53;1764392;79;20990;-60
2023/05/25 09:05:00;;;;;;;7.12;2.42;;;;;;;35.08;29.99;100162.77;1758817;79;20999;-61
2023/05/25 09:07:30;;;;;;;9.73;2.80;;;;;;;34.62;28.99;100161.20;1753390;79;21081;-62
2023/05/25 09:09:59;;;;;;;7.05;2.98;;;;;;;33.84;29.33;100167.62;1719682;81;21448;-61
2023/05/25 09:12:28;;;;;;;8.18;2.20;;;;;;;33.65;29.93;100169.34;1757054;79;21640;-60
2023/05/25 09:14:56;;;;;;;9.05;2.67;;;;;;;34.74;29.97;100159.47;1758125;80;21041;-63
2023/05/25 09:17:27;;;;;;;5.37;2.50;;;;;;;35.93;29.69;100162.08;1696834;82;20988;-61
2023/05/25 09:19:55;;;;;;;12.28;2.80;;;;;;;36.85;29.43;100160.50;1717657;82;21556;-60
2023/05/25 09:22:21;;;;;;;8.48;2.25;;;;;;;37.86;28.68;100161.18;1717947;81;21014;-61
2023/05/25 09:24:50;;;;;;;7.87;2.17;;;;;;;37.57;28.42;100167.95;1721042;81;21010;-64
2023/05/25 09:27:24;;;;;;;16.90;3.05;;;;;;;37.06;28.50;100144.99;1757809;79;21315;-62
2023/05/25 09:29:58;;;;;;;6.58;2.20;;;;;;;37.10;27.99;100169.30;1757500;79;21029;-61
2023/05/25 09:32:26;;;;;;;12.23;2.70;;;;;;;36.45;27.94;100165.17;1754350;79;20982;-60
2023/05/25 09:34:54;;;;;;;9.30;2.50;;;;;;;35.39;27.20;100174.05;1762570;78;21152;-60
2023/05/25 09:37:20;;;;;;;5.12;2.55;;;;;;;35.09;28.41;100169.84;1756489;80;21570;-60
2023/05/25 09:39:49;;;;;;;5.78;2.20;;;;;;;36.08;28.36;100166.09;1755857;79;21476;-60
2023/05/25 09:42:16;;;;;;;3.87;2.50;;;;;;;37.09;27.61;100163.57;1754281;79;21010;-60
2023/05/25 09:44:44;;;;;;;6.70;2.37;;;;;;;37.89;27.35;100161.23;1759235;79;21121;-60
2023/05/25 09:47:15;;;;;;;34.27;5.60;;;;;;;38.12;27.39;100163.07;1754344;79;20982;-60
2023/05/25 09:49:38;;;;;;;14.05;2.45;;;;;;;39.07;27.31;100171.90;1718904;81;22607;-61
2023/05/25 09:52:05;;;;;;;6.97;2.67;;;;;;;39.70;26.95;100162.95;1753431;80;21603;-60
2023/05/25 09:54:32;;;;;;;11.90;2.72;;;;;;;40.54;26.05;100163.09;1726864;81;21001;-61
2023/05/25 09:57:05;;;;;;;5.35;2.37;;;;;;;41.06;25.97;100155.63;1757867;80;20974;-60
2023/05/25 09:59:31;;;;;;;10.05;2.20;;;;;;;41.44;25.88;100160.49;1719091;82;21028;-61
2023/05/25 10:01:59;;;;;;;13.20;3.40;;;;;;;41.75;25.56;100166.14;1755371;80;21642;-61
2023/05/25 10:04:27;;;;;;;3.45;2.25;;;;;;;41.69;24.62;100163.11;1754623;80;21075;-60
2023/05/25 10:06:55;;;;;;;2.60;2.17;;;;;;;41.25;25.01;100160.66;1713955;81;21026;-64
2023/05/25 10:09:24;;;;;;;8.98;2.60;;;;;;;41.73;24.55;100162.84;1755131;80;21043;-65
2023/05/25 10:11:54;;;;;;;8.88;2.55;;;;;;;41.73;24.27;100166.95;1752386;80;21470;-60
2023/05/25 10:14:26;;;;;;;7.70;2.45;;;;;;;41.52;24.02;100161.39;1758228;79;21157;-60
2023/05/25 10:16:56;;;;;;;4.10;2.27;;;;;;;40.62;23.07;100161.25;1758841;79;21018;-60
2023/05/25 10:19:40;;;;;;;8.20;2.10;;;;;;;39.01;23.06;100167.95;1749354;79;21086;-60
2023/05/25 10:22:11;;;;;;;9.65;2.60;;;;;;;38.29;23.83;100172.15;1753886;79;21023;-63
2023/05/25 10:25:06;;;;;;;14.30;3.47;;;;;;;39.18;23.83;100174.22;1727185;79;21065;-60
2023/05/25 10:27:42;;;;;;;8.83;2.80;;;;;;;40.05;23.44;100161.73;1752243;79;21002;-59
2023/05/25 10:30:09;;;;;;;3.25;1.87;;;;;;;40.81;23.00;100164.97;1755291;79;21018;-59
2023/05/25 10:32:36;;;;;;;5.37;2.00;;;;;;;39.94;22.64;100166.81;1715951;82;21076;-61
2023/05/25 10:35:05;;;;;;;3.92;1.87;;;;;;;38.83;23.11;100169.84;1754655;79;21033;-61
2023/05/25 10:37:33;;;;;;;7.30;2.40;;;;;;;39.16;23.16;100172.30;1754223;80;20955;-60
2023/05/25 10:40:01;;;;;;;2.52;1.90;;;;;;;39.61;22.99;100168.58;1718290;81;21576;-61
2023/05/25 10:42:30;;;;;;;5.42;1.82;;;;;;;39.86;22.80;100169.47;1714679;82;21350;-61
2023/05/25 10:44:58;;;;;;;45.08;6.40;;;;;;;40.17;22.36;100162.44;1750906;79;21513;-60
2023/05/25 10:47:27;;;;;;;10.48;2.90;;;;;;;40.29;22.53;100162.86;1715539;82;21014;-60
2023/05/25 10:49:56;;;;;;;15.28;2.80;;;;;;;39.85;21.96;100173.27;1752302;79;21039;-60
2023/05/25 10:52:31;;;;;;;4.00;2.02;;;;;;;38.48;21.82;100172.77;1743705;79;21002;-60
2023/05/25 10:55:04;;;;;;;4.75;2.30;;;;;;;37.96;22.70;100165.52;1752931;79;20990;-60
2023/05/25 10:57:28;;;;;;;13.43;2.55;;;;;;;38.22;22.05;100169.55;1747830;79;21061;-60
2023/05/25 11:00:05;;;;;;;12.60;2.70;;;;;;;37.27;22.29;100161.79;1714453;82;21009;-60
2023/05/25 11:02:56;;;;;;;9.13;2.27;;;;;;;36.44;22.15;100164.86;1715567;81;21046;-64
2023/05/25 11:05:29;;;;;;;9.50;2.62;;;;;;;35.41;22.35;100164.62;1755627;79;21053;-60
2023/05/25 11:08:02;;;;;;;7.30;2.42;;;;;;;34.14;22.35;100162.50;1752963;80;21002;-61
2023/05/25 11:10:51;;;;;;;5.28;2.00;;;;;;;32.81;22.77;100161.89;1757517;80;21054;-61
2023/05/25 11:13:39;;;;;;;6.35;2.17;;;;;;;31.69;23.25;100173.95;1689710;83;21950;-62
2023/05/25 11:16:21;;;;;;;3.30;1.92;;;;;;;30.79;23.61;100170.95;1687472;82;21097;-62
2023/05/25 11:18:51;;;;;;;25.15;3.02;;;;;;;29.98;24.29;100172.94;1690296;83;21049;-62
2023/05/25 11:21:31;;;;;;;29.50;3.60;;;;;;;29.08;24.59;100168.50;1692979;83;21536;-61
2023/05/25 11:24:01;;;;;;;10.32;3.12;;;;;;;28.22;24.71;100169.88;1698559;82;20966;-61
2023/05/25 11:26:30;;;;;;;10.23;2.70;;;;;;;27.48;25.31;100176.02;1696481;82;20998;-62
2023/05/25 11:28:58;;;;;;;12.50;2.92;;;;;;;26.98;25.93;100181.90;1696354;82;21054;-61
2023/05/25 11:31:32;;;;;;;5.87;2.27;;;;;;;26.58;26.16;100177.84;1691058;83;21129;-63